createdAt,value
2022-08-05T00:01:00.943Z,155994.78
2022-08-05T00:03:50.706Z,155996.13
2022-08-05T00:06:29.092Z,155998.72
2022-08-05T00:09:04.090Z,155983.06
2022-08-05T00:11:49.220Z,155972.63
2022-08-05T00:14:29.002Z,155966.06
2022-08-05T00:17:01.728Z,155963.44
2022-08-05T00:19:45.516Z,155955.59
2022-08-05T00:22:26.190Z,155943.88
2022-08-05T00:24:56.366Z,155937.38
2022-08-05T00:27:35.939Z,155938.66
2022-08-05T00:30:11.578Z,155920.38
2022-08-05T00:32:42.319Z,155909.94
2022-08-05T00:35:13.216Z,155911.28
2022-08-05T00:37:53.603Z,155904.72
2022-08-05T00:40:29.055Z,155906.03
2022-08-05T00:43:02.083Z,155893.00
2022-08-05T00:45:38.501Z,155885.16
2022-08-05T00:48:13.971Z,155886.50
2022-08-05T00:50:46.580Z,155916.50
2022-08-05T00:54:00.277Z,155929.50
2022-08-05T00:56:12.130Z,155951.72
2022-08-05T00:58:42.608Z,155962.16
2022-08-05T01:01:15.955Z,155936.06
2022-08-05T01:04:13.770Z,155929.50
2022-08-05T01:06:48.610Z,155958.22
2022-08-05T01:09:21.988Z,155960.81
2022-08-05T01:14:48.042Z,155934.72
2022-08-05T01:17:25.715Z,155929.50
2022-08-05T01:20:04.962Z,155916.50
2022-08-05T01:22:48.757Z,155907.38
2022-08-05T01:25:52.338Z,155929.50
2022-08-05T01:28:31.004Z,155942.56
2022-08-05T01:31:08.001Z,155912.56
2022-08-05T01:33:43.276Z,155906.03
2022-08-05T01:36:28.271Z,155893.00
2022-08-05T01:39:03.639Z,155894.31
2022-08-05T01:41:38.156Z,155894.31
2022-08-05T01:44:18.464Z,155886.50
2022-08-05T01:46:52.194Z,155865.59
2022-08-05T01:49:26.583Z,155860.38
2022-08-05T01:52:19.076Z,155835.59
2022-08-05T01:54:54.322Z,155814.75
2022-08-05T01:58:11.959Z,155791.25
2022-08-05T02:00:32.513Z,155745.56
2022-08-05T02:03:24.054Z,155727.34
2022-08-05T02:05:59.882Z,155694.75
2022-08-05T02:08:31.793Z,155662.16
2022-08-05T02:11:16.115Z,155623.06
2022-08-05T02:13:59.275Z,155560.47
2022-08-05T02:16:37.651Z,155569.59
2022-08-05T02:19:16.981Z,155572.19
2022-08-05T02:21:55.571Z,155572.19
2022-08-05T02:24:30.626Z,155586.53
2022-08-05T02:27:10.104Z,155564.41
2022-08-05T02:29:59.533Z,155542.16
2022-08-05T02:32:35.959Z,155540.88
2022-08-05T02:35:22.062Z,155509.59
2022-08-05T02:38:02.329Z,155488.78
2022-08-05T02:40:34.803Z,155483.56
2022-08-05T02:43:07.350Z,155452.25
2022-08-05T02:45:52.977Z,155411.88
2022-08-05T02:48:34.317Z,155443.16
2022-08-05T02:51:05.803Z,155447.03
2022-08-05T02:53:39.333Z,155431.41
2022-08-05T02:56:16.074Z,155402.75
2022-08-05T02:58:51.556Z,155387.13
2022-08-05T03:01:27.152Z,155391.03
2022-08-05T03:04:14.183Z,155383.25
2022-08-05T03:06:57.159Z,155385.81
2022-08-05T03:09:37.648Z,155377.97
2022-08-05T03:12:10.294Z,155345.44
2022-08-05T03:14:46.141Z,155316.72
2022-08-05T03:17:20.154Z,155277.66
2022-08-05T03:19:54.639Z,155265.94
2022-08-05T03:22:32.129Z,155246.41
2022-08-05T03:25:11.782Z,155241.19
2022-08-05T03:27:59.617Z,155221.66
2022-08-05T03:30:34.241Z,155222.94
2022-08-05T03:33:06.117Z,155207.31
2022-08-05T03:35:41.101Z,155191.72
2022-08-05T03:38:15.067Z,155191.72
2022-08-05T03:40:47.284Z,155187.78
2022-08-05T03:44:09.598Z,155168.25
2022-08-05T03:46:11.131Z,155186.50
2022-08-05T03:48:45.236Z,155183.88
2022-08-05T03:52:36.468Z,155182.59
2022-08-05T03:55:51.848Z,155193.00
2022-08-05T03:57:16.531Z,155178.66
2022-08-05T04:00:01.529Z,155177.38
2022-08-05T04:02:39.140Z,155199.53
2022-08-05T04:05:17.421Z,155215.16
2022-08-05T04:07:57.706Z,155216.44
2022-08-05T04:10:37.591Z,155206.03
2022-08-05T04:13:09.389Z,155212.53
2022-08-05T04:16:03.114Z,155236.00
2022-08-05T04:18:34.539Z,155220.38
2022-08-05T04:21:07.270Z,155237.28
2022-08-05T04:24:04.738Z,155239.91
2022-08-05T04:26:35.097Z,155267.22
2022-08-05T04:29:07.121Z,155273.78
2022-08-05T04:31:38.556Z,155298.53
2022-08-05T04:34:31.151Z,155321.94
2022-08-05T04:36:59.885Z,155342.81
2022-08-05T04:39:35.280Z,155381.91
2022-08-05T04:42:06.699Z,155410.56
2022-08-05T04:44:36.835Z,155443.16
2022-08-05T04:47:10.452Z,155479.63
2022-08-05T04:50:01.958Z,155522.66
2022-08-05T04:52:34.441Z,155550.06
2022-08-05T04:55:14.549Z,155600.88
2022-08-05T04:57:51.581Z,155642.63
2022-08-05T05:00:24.487Z,155683.03
2022-08-05T05:02:54.955Z,155718.22
2022-08-05T05:05:28.301Z,155761.22
2022-08-05T05:08:03.003Z,155795.19
2022-08-05T05:10:42.479Z,155846.03
2022-08-05T05:13:26.234Z,155898.22
2022-08-05T05:16:07.076Z,155953.00
2022-08-05T05:18:37.564Z,155989.56
2022-08-05T05:21:08.446Z,156028.72
2022-08-05T05:24:03.721Z,156073.09
2022-08-05T05:26:33.169Z,156142.25
2022-08-05T05:29:14.364Z,156187.97
2022-08-05T05:31:46.543Z,156237.56
2022-08-05T05:34:21.168Z,156276.75
2022-08-05T05:36:54.594Z,156339.38
2022-08-05T05:39:25.053Z,156385.19
2022-08-05T05:42:05.721Z,156460.91
2022-08-05T05:44:42.947Z,156526.22
2022-08-05T05:47:21.998Z,156595.50
2022-08-05T05:49:56.877Z,156642.50
2022-08-05T05:52:37.986Z,156720.94
2022-08-05T05:55:13.903Z,156788.91
2022-08-05T05:57:52.822Z,156826.81
2022-08-05T06:00:27.771Z,156864.75
2022-08-05T06:03:40.672Z,156906.63
2022-08-05T06:05:56.316Z,156968.03
2022-08-05T06:08:32.685Z,156968.03
2022-08-05T06:11:04.042Z,156995.53
2022-08-05T06:13:40.888Z,156958.88
2022-08-05T06:16:28.194Z,156961.53
2022-08-05T06:19:02.057Z,157012.50
2022-08-05T06:21:37.437Z,157047.81
2022-08-05T06:24:11.211Z,157040.00
2022-08-05T06:26:51.492Z,157089.75
2022-08-05T06:29:46.389Z,157136.78
2022-08-05T06:32:26.434Z,157148.56
2022-08-05T06:35:05.795Z,157244.09
2022-08-05T06:37:56.252Z,157250.66
2022-08-05T06:40:31.140Z,157259.84
2022-08-05T06:43:03.371Z,157237.50
2022-08-05T06:45:44.753Z,157309.56
2022-08-05T06:48:50.113Z,157385.44
2022-08-05T06:51:23.877Z,157435.22
2022-08-05T06:53:59.530Z,157542.53
2022-08-05T06:56:34.826Z,157589.72
2022-08-05T06:59:08.361Z,157708.81
2022-08-05T07:01:43.395Z,157752.09
2022-08-05T07:04:16.472Z,157784.88
2022-08-05T07:06:50.390Z,157841.19
2022-08-05T07:09:20.880Z,157833.28
2022-08-05T07:11:55.969Z,157824.13
2022-08-05T07:14:43.179Z,157845.13
2022-08-05T07:21:04.854Z,157976.16
2022-08-05T07:23:36.304Z,158056.13
2022-08-05T07:26:22.766Z,158079.69
2022-08-05T07:28:55.590Z,158174.09
2022-08-05T07:31:40.939Z,158159.63
2022-08-05T07:34:28.689Z,158278.97
2022-08-05T07:37:02.085Z,158275.00
2022-08-05T07:40:26.240Z,158290.78
2022-08-05T07:42:23.788Z,158338.03
2022-08-05T07:45:04.234Z,158338.03
2022-08-05T07:47:42.200Z,158397.03
2022-08-05T07:50:16.644Z,158387.84
2022-08-05T07:52:50.378Z,158442.91
2022-08-05T07:56:05.232Z,158449.47
2022-08-05T07:58:17.807Z,158470.47
2022-08-05T08:01:06.168Z,158536.09
2022-08-05T08:03:45.083Z,158583.28
2022-08-05T08:06:16.151Z,158585.88
2022-08-05T08:08:49.270Z,158572.81
2022-08-05T08:11:19.808Z,158617.47
2022-08-05T08:14:00.688Z,158675.16
2022-08-05T08:16:35.143Z,158735.50
2022-08-05T08:20:44.401Z,158756.56
2022-08-05T08:22:11.951Z,158735.50
2022-08-05T08:24:52.875Z,158731.59
2022-08-05T08:27:23.666Z,158704.03
2022-08-05T08:30:30.212Z,158665.97
2022-08-05T08:33:08.091Z,158757.88
2022-08-05T08:35:41.256Z,158673.84
2022-08-05T08:38:32.287Z,158781.47
2022-08-05T08:41:13.292Z,158841.88
2022-08-05T08:45:19.920Z,158881.25
2022-08-05T08:46:37.936Z,158923.28
2022-08-05T08:50:23.111Z,158965.25
2022-08-05T08:52:13.133Z,158887.84
2022-08-05T08:54:47.891Z,158811.69
2022-08-05T08:57:22.583Z,158785.41
2022-08-05T08:59:53.261Z,158961.31
2022-08-05T09:02:27.396Z,158979.69
2022-08-05T09:05:17.559Z,158988.91
2022-08-05T09:07:58.027Z,158952.16
2022-08-05T09:10:30.293Z,159015.19
2022-08-05T09:13:04.709Z,159101.81
2022-08-05T09:15:37.080Z,158950.81
2022-08-05T09:18:13.299Z,158907.53
2022-08-05T09:20:44.856Z,159020.44
2022-08-05T09:23:19.220Z,158988.91
2022-08-05T09:26:03.156Z,159057.19
2022-08-05T09:28:38.627Z,158973.16
2022-08-05T09:31:43.824Z,159132.00
2022-08-05T09:34:05.292Z,159153.09
2022-08-05T09:36:45.931Z,159138.66
2022-08-05T09:39:45.742Z,159166.22
2022-08-05T09:42:24.417Z,159147.88
2022-08-05T09:46:04.630Z,159155.72
2022-08-05T09:48:01.808Z,159151.75
2022-08-05T09:50:44.579Z,159252.84
2022-08-05T09:53:25.887Z,159183.31
2022-08-05T09:56:13.078Z,159279.22
2022-08-05T09:58:44.030Z,159229.25
2022-08-05T10:01:32.395Z,159171.47
2022-08-05T10:04:10.290Z,159040.13
2022-08-05T10:06:49.933Z,159158.34
2022-08-05T10:09:27.837Z,159335.69
2022-08-05T10:12:30.120Z,159367.19
2022-08-05T10:15:20.603Z,159413.19
2022-08-05T10:18:11.914Z,159489.44
2022-08-05T10:20:47.938Z,159390.84
2022-08-05T10:23:34.602Z,159430.31
2022-08-05T10:26:14.898Z,159511.75
2022-08-05T10:28:46.835Z,159495.97
2022-08-05T10:32:52.338Z,159347.47
2022-08-05T10:34:12.816Z,159352.72
2022-08-05T10:36:45.090Z,159459.22
2022-08-05T10:39:25.217Z,159459.22
2022-08-05T10:42:18.407Z,159477.56
2022-08-05T10:44:50.239Z,159342.22
2022-08-05T10:47:26.806Z,159455.25
2022-08-05T10:50:20.533Z,159310.72
2022-08-05T10:53:04.088Z,159364.56
2022-08-05T10:56:03.718Z,159551.22
2022-08-05T10:58:47.903Z,159645.88
2022-08-05T11:01:28.037Z,159615.59
2022-08-05T11:04:10.550Z,159655.09
2022-08-05T11:07:12.109Z,159630.06
2022-08-05T11:09:47.427Z,159581.44
2022-08-05T11:12:50.471Z,159602.44
2022-08-05T11:16:00.192Z,159641.88
2022-08-05T11:18:34.285Z,159766.78
2022-08-05T11:21:12.008Z,159729.94
2022-08-05T11:24:04.264Z,159639.22
2022-08-05T11:26:49.625Z,159501.25
2022-08-05T11:29:38.237Z,159435.56
2022-08-05T11:32:27.844Z,159673.44
2022-08-05T11:34:59.706Z,159769.44
2022-08-05T11:38:26.768Z,159839.09
2022-08-05T11:41:34.226Z,159618.22
2022-08-05T11:44:07.567Z,159515.69
2022-08-05T11:47:09.829Z,159666.91
2022-08-05T11:49:34.110Z,159589.28
2022-08-05T11:52:08.709Z,159471.03
2022-08-05T11:54:43.531Z,159497.28
2022-08-05T11:57:25.195Z,159347.47
2022-08-05T11:59:56.687Z,159465.78
2022-08-05T12:02:32.970Z,159510.44
2022-08-05T12:05:07.360Z,159644.47
2022-08-05T12:08:09.216Z,159468.38
2022-08-05T12:10:45.000Z,159557.78
2022-08-05T12:13:48.422Z,159601.16
2022-08-05T12:16:14.974Z,159656.38
2022-08-05T12:18:49.086Z,159523.59
2022-08-05T12:21:26.870Z,159626.13
2022-08-05T12:24:07.016Z,159602.44
2022-08-05T12:26:39.149Z,159585.38
2022-08-05T12:29:16.126Z,159602.44
2022-08-05T12:31:53.227Z,159522.28
2022-08-05T12:34:28.608Z,159618.22
2022-08-05T12:37:00.837Z,159578.78
2022-08-05T12:39:38.743Z,159652.44
2022-08-05T12:42:14.854Z,159690.56
2022-08-05T12:44:48.910Z,159622.16
2022-08-05T12:47:30.707Z,159662.94
2022-08-05T12:50:05.981Z,159707.63
2022-08-05T12:52:41.661Z,159633.97
2022-08-05T12:55:26.630Z,159615.59
2022-08-05T12:58:49.310Z,159615.59
2022-08-05T13:01:59.711Z,159599.84
2022-08-05T13:03:48.637Z,159707.63
2022-08-05T13:06:20.006Z,159683.97
2022-08-05T13:08:53.093Z,159726.03
2022-08-05T13:12:02.767Z,159597.19
2022-08-05T13:14:24.762Z,159588.00
2022-08-05T13:17:12.279Z,159626.13
2022-08-05T13:19:52.768Z,159699.72
2022-08-05T13:22:30.013Z,159719.44
2022-08-05T13:25:19.179Z,159740.50
2022-08-05T13:27:55.114Z,159732.59
2022-08-05T13:30:34.285Z,159655.09
2022-08-05T13:33:14.169Z,159523.59
2022-08-05T13:35:51.739Z,159627.41
2022-08-05T13:38:30.448Z,159628.72
2022-08-05T13:41:01.875Z,159607.69
2022-08-05T13:43:45.890Z,159602.44
2022-08-05T13:46:38.005Z,159693.16
2022-08-05T13:49:17.392Z,159660.34
2022-08-05T13:51:48.058Z,159598.50
2022-08-05T13:54:25.186Z,159578.78
2022-08-05T13:56:56.431Z,159457.88
2022-08-05T13:59:30.711Z,159509.09
2022-08-05T14:02:02.097Z,159468.38
2022-08-05T14:04:50.846Z,159534.09
2022-08-05T14:07:26.398Z,159489.44
2022-08-05T14:10:18.687Z,159438.16
2022-08-05T14:12:58.439Z,159501.25
2022-08-05T14:16:06.816Z,159545.97
2022-08-05T14:18:23.289Z,159545.97
2022-08-05T14:20:57.189Z,159610.34
2022-08-05T14:23:36.347Z,159603.75
2022-08-05T14:26:06.933Z,159590.63
2022-08-05T14:28:37.130Z,159594.53
2022-08-05T14:32:02.436Z,159673.44
2022-08-05T14:34:13.862Z,159641.88
2022-08-05T14:36:48.685Z,159561.72
2022-08-05T14:39:23.264Z,159453.91
2022-08-05T14:42:19.092Z,159510.44
2022-08-05T14:44:46.282Z,159511.75
2022-08-05T14:47:16.143Z,159459.22
2022-08-05T14:49:59.410Z,159390.84
2022-08-05T14:52:52.060Z,159377.69
2022-08-05T14:55:24.617Z,159419.81
2022-08-05T14:57:56.464Z,159410.59
2022-08-05T15:00:29.534Z,159380.34
2022-08-05T15:02:59.851Z,159381.63
2022-08-05T15:06:08.431Z,159406.66
2022-08-05T15:08:58.525Z,159411.91
2022-08-05T15:11:13.176Z,159330.44
2022-08-05T15:13:46.042Z,159340.94
2022-08-05T15:16:16.964Z,159344.88
2022-08-05T15:18:47.756Z,159317.28
2022-08-05T15:21:20.874Z,159334.38
2022-08-05T15:23:54.059Z,159284.47
2022-08-05T15:26:32.081Z,159304.16
2022-08-05T15:29:02.761Z,159309.41
2022-08-05T15:31:34.914Z,159314.66
2022-08-05T15:34:31.248Z,159340.94
2022-08-05T15:36:58.122Z,159293.66
2022-08-05T15:41:01.028Z,159237.09
2022-08-05T15:42:55.126Z,159214.81
2022-08-05T15:45:37.112Z,159192.47
2022-08-05T15:48:10.094Z,159199.06
2022-08-05T15:50:45.712Z,159196.41
2022-08-05T15:53:16.394Z,159168.84
2022-08-05T15:56:01.832Z,159151.75
2022-08-05T15:58:37.195Z,159141.25
2022-08-05T16:01:16.223Z,159125.47
2022-08-05T16:03:50.406Z,159090.00
2022-08-05T16:06:23.257Z,159084.78
2022-08-05T16:08:55.494Z,159087.38
2022-08-05T16:11:39.889Z,159099.22
2022-08-05T16:14:17.170Z,159092.66
2022-08-05T16:16:49.924Z,159072.97
2022-08-05T16:20:02.713Z,159053.28
2022-08-05T16:22:11.014Z,159046.69
2022-08-05T16:24:51.914Z,159042.78
2022-08-05T16:27:47.269Z,159019.13
2022-08-05T16:30:23.088Z,158962.66
2022-08-05T16:32:53.804Z,158950.81
2022-08-05T16:35:28.578Z,158991.50
2022-08-05T16:38:15.487Z,158984.94
2022-08-05T16:41:00.030Z,158935.06
2022-08-05T16:43:35.764Z,158906.19
2022-08-05T16:46:23.798Z,158893.09
2022-08-05T16:48:55.544Z,158885.19
2022-08-05T16:51:31.092Z,158856.25
2022-08-05T16:54:16.027Z,158814.28
2022-08-05T16:56:47.860Z,158792.00
2022-08-05T16:59:25.107Z,158769.66
2022-08-05T17:01:58.101Z,158747.38
2022-08-05T17:04:31.141Z,158725.00
2022-08-05T17:07:11.477Z,158693.53
2022-08-05T17:09:58.163Z,158672.56
2022-08-05T17:12:51.384Z,158641.03
2022-08-05T17:15:29.522Z,158622.69
2022-08-05T17:18:15.584Z,158600.38
2022-08-05T17:20:46.989Z,158570.16
2022-08-05T17:24:03.661Z,158546.59
2022-08-05T17:26:07.688Z,158505.94
2022-08-05T17:28:40.627Z,158474.44
2022-08-05T17:31:24.597Z,158444.22
2022-08-05T17:34:05.599Z,158394.38
2022-08-05T17:36:40.702Z,158327.53
2022-08-05T17:39:24.087Z,158321.00
2022-08-05T17:42:17.844Z,158261.94
2022-08-05T17:44:51.412Z,158233.09
2022-08-05T17:47:24.541Z,158204.25
2022-08-05T17:50:03.659Z,158145.25
2022-08-05T17:52:53.109Z,158099.34
2022-08-05T17:55:34.404Z,158050.88
2022-08-05T17:58:14.609Z,157999.75
2022-08-05T18:00:50.989Z,157947.31
2022-08-05T18:03:58.407Z,157927.66
2022-08-05T18:06:15.740Z,157891.00
2022-08-05T18:08:52.559Z,157850.34
2022-08-05T18:11:32.969Z,157838.53
2022-08-05T18:14:07.530Z,157828.06
2022-08-05T18:16:51.017Z,157774.34
2022-08-05T18:19:26.023Z,157779.63
2022-08-05T18:22:07.321Z,157746.88
2022-08-05T18:24:42.520Z,157718.00
2022-08-05T18:27:18.922Z,157689.19
2022-08-05T18:29:54.588Z,157642.06
2022-08-05T18:32:28.441Z,157621.13
2022-08-05T18:35:02.671Z,157581.84
2022-08-05T18:37:40.230Z,157532.03
2022-08-05T18:40:31.065Z,157521.56
2022-08-05T18:43:05.408Z,157467.91
2022-08-05T18:45:41.214Z,157441.75
2022-08-05T18:48:17.454Z,157444.38
2022-08-05T18:52:05.558Z,157427.34
2022-08-05T18:54:08.745Z,157401.13
2022-08-05T18:56:39.285Z,157386.72
2022-08-05T18:59:43.034Z,157386.72
2022-08-05T19:02:00.737Z,157357.94
2022-08-05T19:04:34.030Z,157351.41
2022-08-05T19:07:29.876Z,157325.25
2022-08-05T19:10:17.604Z,157333.06
2022-08-05T19:12:51.406Z,157300.38
2022-08-05T19:15:57.194Z,157300.38
2022-08-05T19:18:20.718Z,157251.97
2022-08-05T19:20:54.109Z,157225.75
2022-08-05T19:24:07.534Z,157227.06
2022-08-05T19:26:24.140Z,157217.88
2022-08-05T19:28:55.825Z,157216.59
2022-08-05T19:31:27.023Z,157195.66
2022-08-05T19:34:04.148Z,157159.00
2022-08-05T19:36:36.701Z,157143.31
2022-08-05T19:39:09.845Z,157135.50
2022-08-05T19:42:07.351Z,157148.56
2022-08-05T19:44:40.228Z,157113.25
2022-08-05T19:47:16.268Z,157098.84
2022-08-05T19:49:48.180Z,157085.81
2022-08-05T19:52:31.029Z,157073.94
2022-08-05T19:55:06.941Z,156992.88
2022-08-05T19:57:48.955Z,157013.81
2022-08-05T20:00:30.660Z,157025.59
2022-08-05T20:03:08.644Z,157012.50
2022-08-05T20:05:49.905Z,157004.69
2022-08-05T20:08:24.555Z,157000.75
2022-08-05T20:10:58.120Z,156949.78
2022-08-05T20:13:54.541Z,156914.47
2022-08-05T20:16:19.413Z,156926.22
2022-08-05T20:18:56.418Z,156918.38
2022-08-05T20:21:27.929Z,156917.06
2022-08-05T20:24:02.123Z,156896.13
2022-08-05T20:26:35.670Z,156889.59
2022-08-05T20:29:06.417Z,156868.63
2022-08-05T20:31:58.272Z,156866.06
2022-08-05T20:34:33.722Z,156860.81
2022-08-05T20:37:04.554Z,156859.53
2022-08-05T20:39:51.556Z,156869.97
2022-08-05T20:42:25.131Z,156868.63
2022-08-05T20:44:58.505Z,156890.88
2022-08-05T20:47:32.749Z,156885.66
2022-08-05T20:50:05.315Z,156884.38
2022-08-05T20:52:38.956Z,156877.78
2022-08-05T20:55:54.946Z,156883.03
2022-08-05T20:58:05.183Z,156886.97
2022-08-05T21:00:49.631Z,156900.03
2022-08-05T21:03:24.899Z,156905.31
2022-08-05T21:05:55.721Z,156903.97
2022-08-05T21:08:41.530Z,156883.03
2022-08-05T21:12:07.551Z,156880.44
2022-08-05T21:14:05.950Z,156864.75
2022-08-05T21:16:37.210Z,156851.66
2022-08-05T21:19:07.665Z,156837.28
2022-08-05T21:21:39.365Z,156838.56
2022-08-05T21:24:15.342Z,156830.75
2022-08-05T21:26:58.087Z,156833.34
2022-08-05T21:29:32.582Z,156863.41
2022-08-05T21:32:11.201Z,156881.72
2022-08-05T21:35:08.496Z,156847.72
2022-08-05T21:37:41.188Z,156837.28
2022-08-05T21:40:14.237Z,156838.56
2022-08-05T21:42:47.475Z,156804.63
2022-08-05T21:45:24.929Z,156777.16
2022-08-05T21:48:11.249Z,156794.13
2022-08-05T21:50:53.050Z,156796.78
2022-08-05T21:53:30.924Z,156788.91
2022-08-05T21:56:16.315Z,156778.44
2022-08-05T21:58:57.396Z,156768.00
2022-08-05T22:01:35.510Z,156747.09
2022-08-05T22:04:05.948Z,156739.25
2022-08-05T22:06:50.294Z,156782.38
2022-08-05T22:09:22.287Z,156751.03
2022-08-05T22:11:52.493Z,156748.41
2022-08-05T22:14:35.532Z,156722.22
2022-08-05T22:17:10.528Z,156698.69
2022-08-05T22:20:00.423Z,156688.25
2022-08-05T22:22:31.260Z,156666.03
2022-08-05T22:25:21.773Z,156649.03
2022-08-05T22:28:10.310Z,156636.00
2022-08-05T22:30:56.798Z,156630.78
2022-08-05T22:33:55.413Z,156651.66
2022-08-05T22:36:23.859Z,156696.09
2022-08-05T22:38:54.984Z,156698.69
2022-08-05T22:42:10.518Z,156679.09
2022-08-05T22:44:18.981Z,156692.16
2022-08-05T22:46:49.677Z,156680.44
2022-08-05T22:50:18.158Z,156680.44
2022-08-05T22:52:30.202Z,156654.25
2022-08-05T22:55:04.363Z,156612.47
2022-08-05T22:57:50.385Z,156581.13
2022-08-05T23:00:22.724Z,156558.88
2022-08-05T23:02:55.122Z,156537.94
2022-08-05T23:05:28.225Z,156523.56
2022-08-05T23:08:01.012Z,156490.94
2022-08-05T23:10:31.466Z,156470.06
2022-08-05T23:13:01.639Z,156447.84
2022-08-05T23:15:34.824Z,156437.41
2022-08-05T23:18:11.692Z,156419.09
2022-08-05T23:20:49.669Z,156390.41
2022-08-05T23:23:20.976Z,156382.53
2022-08-05T23:25:59.328Z,156347.25
2022-08-05T23:28:30.980Z,156323.72
2022-08-05T23:31:17.100Z,156301.56
2022-08-05T23:34:05.471Z,156308.06
2022-08-05T23:36:44.189Z,156326.38
2022-08-05T23:39:31.920Z,156262.38
2022-08-05T23:42:03.872Z,156241.50
2022-08-05T23:44:38.853Z,156229.72
2022-08-05T23:47:15.630Z,156219.28
2022-08-05T23:49:46.480Z,156199.72
2022-08-05T23:52:36.074Z,156199.72
2022-08-05T23:55:21.338Z,156210.16
2022-08-05T23:57:52.825Z,156208.84
